Latest Coastal Weather Observations for Evans Head

IDN60701

Issued at 11:55 am EST Monday 15 September 2014 (issued every 10 minutes, with the page automatically refreshed every 10 minutes)

About coastal observations | Map of coastal stations | Coastal observations for NSW | Marine services | Other Formats
Station Details ID: 058212 Name: EVANS HEAD RAAF BOMBING RANGE AWS Lat: -29.18 Lon: 153.40 Height: 62.5 m
Data from the previous 72 hours. | See also: Recent months at Evans Head
Date/Time
EST
Temp

°C
Wind Pressure Rain
since 9am
mm
Weather Cloud Vis
km
Sea
Height
m
Swell
Dir
 
Speed
knots
Gust
knots
hPa Trend Height
m
Period
s
Dir
15/11:30am 22.6 SSE 12 15 1016.4 - 0.0 - - - - - - -
15/11:00am 23.6 SW 7 11 1016.8 - 0.0 - - - - - - -
15/10:30am 25.6 NW 7 13 1016.8 - 0.0 - - - - - - -
15/10:00am 24.2 NW 8 13 1016.9 - 0.0 - - - - - - -
15/09:30am 24.1 NW 6 11 1017.2 - 0.0 - - - - - - -
15/09:00am 23.0 NNW 8 10 1017.4 - 0.0 - - - - - - -
15/08:30am 21.1 NW 11 15 1017.6 - 0.0 - - - - - - -
15/08:00am 19.8 NNW 6 11 1017.7 - 0.0 - - - - - - -
15/07:30am 18.2 NNW 7 9 1017.6 - 0.0 - - - - - - -
15/07:00am 15.3 N 6 8 1017.8 - 0.0 - - - - - - -
15/06:30am 13.5 N 4 5 1017.7 - 0.0 - - - - - - -
15/06:00am 12.7 N 5 7 1017.5 - 0.0 - - - - - - -
15/05:30am 12.0 NNW 5 7 1017.2 - 0.0 - - - - - - -
15/05:00am 12.2 N 6 7 1017.0 - 0.0 - - - - - - -
15/04:30am 12.2 N 7 8 1016.8 - 0.0 - - - - - - -
15/04:00am 12.4 N 6 7 1016.7 - 0.0 - - - - - - -
15/03:30am 12.4 NNW 5 6 1016.8 - 0.0 - - - - - - -
15/03:00am 12.3 NNW 5 7 1016.9 - 0.0 - - - - - - -
15/02:30am 12.3 NNW 5 6 1016.9 - 0.0 - - - - - - -
15/02:00am 12.5 NNW 5 6 1017.2 - 0.0 - - - - - - -
15/01:30am 12.5 NNW 6 7 1017.4 - 0.0 - - - - - - -
15/01:00am 12.8 N 6 7 1017.5 - 0.0 - - - - - - -
15/12:30am 13.2 N 6 8 1017.7 - 0.0 - - - - - - -
15/12:00am 13.4 N 6 9 1017.9 - 0.0 - - - - - - -
 
Date/Time
EST
Temp

°C
Wind Pressure Rain
since 9am
mm
Weather Cloud Vis
km
Sea
Height
m
Swell
Dir
 
Speed
knots
Gust
knots
hPa Trend Height
m
Period
s
Dir
14/11:30pm 13.6 N 8 11 1018.1 - 0.0 - - - - - - -
14/11:00pm 13.4 N 7 9 1018.2 - 0.0 - - - - - - -
14/10:30pm 13.7 N 6 8 1018.4 - 0.0 - - - - - - -
14/10:00pm 14.3 N 8 10 1018.5 - 0.0 - - - - - - -
14/09:30pm 14.7 N 9 12 1018.5 - 0.0 - - - - - - -
14/09:00pm 15.0 N 9 12 1018.5 - 0.0 - - - - - - -
14/08:30pm 15.7 N 10 14 1018.5 - 0.0 - - - - - - -
14/08:00pm 16.3 N 10 15 1018.5 - 0.0 - - - - - - -
14/07:30pm 16.6 N 9 15 1018.3 - 0.0 - - - - - - -
14/07:00pm 16.9 N 11 17 1018.1 - 0.0 - - - - - - -
14/06:30pm 17.0 N 10 14 1017.9 - 0.0 - - - - - - -
14/06:00pm 17.3 N 11 17 1017.9 - 0.0 - - - - - - -
14/05:30pm 17.9 NNE 12 18 1017.8 - 0.0 - - - - - - -
14/05:00pm 18.6 NNE 12 19 1017.8 - 0.0 - - - - - - -
14/04:30pm 19.6 NNE 13 19 1017.9 - 0.0 - - - - - - -
14/04:00pm 20.3 NNE 14 21 1017.9 - 0.0 - - - - - - -
14/03:30pm 21.0 NNE 13 20 1018.0 - 0.0 - - - - - - -
14/03:00pm 22.1 NNE 11 18 1018.3 - 0.0 - - - - - - -
14/02:30pm 21.4 NNE 13 19 1018.6 - 0.0 - - - - - - -
14/02:00pm 22.3 NE 10 17 1019.0 - 0.0 - - - - - - -
14/01:30pm 23.2 NNE 10 16 1019.3 - 0.0 - - - - - - -
14/01:00pm 22.4 NE 10 15 1019.7 - 0.0 - - - - - - -
14/12:30pm 23.2 NNE 10 15 1020.1 - 0.0 - - - - - - -
14/12:00pm 24.2 N 5 10 1020.6 - 0.0 - - - - - - -
14/11:30am 24.4 N 8 13 1021.2 - 0.0 - - - - - - -
14/11:00am 23.7 N 7 11 1021.7 - 0.0 - - - - - - -
14/10:30am 23.4 N 7 13 1022.3 - 0.0 - - - - - - -
14/10:00am 22.1 N 6 11 1022.6 - 0.0 - - - - - - -
14/09:30am 20.7 N 5 8 1022.8 - 0.0 - - - - - - -
14/09:00am 19.8 NNW 3 7 1023.0 - 0.0 - - - - - - -
14/08:30am 18.0 W 3 5 1023.0 - 0.0 - - - - - - -
14/08:00am 16.5 W 4 5 1023.1 - 0.0 - - - - - - -
14/07:30am 14.8 NNW 2 3 1023.1 - 0.0 - - - - - - -
14/07:00am 12.8 N 4 5 1022.9 - 0.0 - - - - - - -
14/06:30am 11.8 WNW 4 5 1022.8 - 0.0 - - - - - - -
14/06:00am 11.7 WNW 3 5 1022.6 - 0.0 - - - - - - -
14/05:30am 11.4 NW 6 8 1022.3 - 0.0 - - - - - - -
14/05:00am 11.4 WNW 6 7 1022.3 - 0.0 - - - - - - -
14/04:30am 11.7 NW 4 5 1022.0 - 0.0 - - - - - - -
14/04:00am 11.8 NNW 4 6 1021.9 - 0.0 - - - - - - -
14/03:30am 12.4 W 3 4 1022.1 - 0.0 - - - - - - -
14/03:00am 12.5 WNW 5 6 1022.4 - 0.0 - - - - - - -
14/02:30am 12.3 NW 4 5 1022.7 - 0.0 - - - - - - -
14/02:00am 13.2 W 4 6 1023.0 - 0.0 - - - - - - -
14/01:30am 13.4 WSW 4 6 1023.2 - 0.0 - - - - - - -
14/01:00am 13.7 W 6 7 1023.4 - 0.0 - - - - - - -
14/12:30am 14.3 WSW 6 7 1023.7 - 0.0 - - - - - - -
14/12:00am 14.5 W 6 7 1023.9 - 0.0 - - - - - - -
 
Date/Time
EST
Temp

°C
Wind Pressure Rain
since 9am
mm
Weather Cloud Vis
km
Sea
Height
m
Swell
Dir
 
Speed
knots
Gust
knots
hPa Trend Height
m
Period
s
Dir
13/11:30pm 13.9 W 7 8 1024.0 - 0.0 - - - - - - -
13/11:00pm 13.7 W 7 8 1024.0 - 0.0 - - - - - - -
13/10:30pm 14.6 WNW 4 5 1023.9 - 0.0 - - - - - - -
13/10:00pm 13.9 N 5 6 1023.9 - 0.0 - - - - - - -
13/09:30pm 14.3 NNW 5 5 1024.0 - 0.0 - - - - - - -
13/09:00pm 14.9 N 5 6 1024.1 - 0.0 - - - - - - -
13/08:30pm 15.1 N 5 6 1024.3 - 0.0 - - - - - - -
13/08:00pm 15.4 N 5 7 1024.2 - 0.0 - - - - - - -
13/07:30pm 15.9 NNW 5 8 1024.4 - 0.0 - - - - - - -
13/07:00pm 16.2 WNW 5 8 1024.5 - 0.0 - - - - - - -
13/06:30pm 16.1 N 4 5 1023.9 - 0.0 - - - - - - -
13/06:00pm 16.5 NNE 5 6 1023.6 - 0.0 - - - - - - -
13/05:30pm 17.0 NNE 4 5 1023.4 - 0.0 - - - - - - -
13/05:00pm 17.3 NE 4 7 1023.2 - 0.0 - - - - - - -
13/04:30pm 17.9 E 9 13 1022.9 - 0.0 - - - - - - -
13/04:00pm 18.6 ENE 10 14 1022.6 - 0.0 - - - - - - -
13/03:30pm 19.0 E 9 14 1022.6 - 0.0 - - - - - - -
13/03:00pm 19.4 ENE 9 13 1022.8 - 0.0 - - - - - - -
13/02:30pm 19.7 E 11 16 1022.9 - 0.0 - - - - - - -
13/02:00pm 19.9 E 11 16 1023.0 - 0.0 - - - - - - -
13/01:30pm 20.0 ESE 11 16 1023.2 - 0.0 - - - - - - -
13/01:00pm 19.1 ESE 10 13 1023.3 - 0.0 - - - - - - -
13/12:30pm 18.3 SE 10 12 1023.7 - 0.0 - - - - - - -
13/12:00pm 18.7 SE 10 14 1024.1 - 0.0 - - - - - - -
13/11:30am 21.4 SE 11 15 1024.1 - 0.0 - - - - - - -
13/11:00am 21.9 E 9 13 1024.4 - 0.0 - - - - - - -
13/10:30am 21.7 E 10 14 1024.5 - 0.0 - - - - - - -
13/10:00am 22.0 NNE 6 10 1024.7 - 0.0 - - - - - - -
13/09:30am 20.8 NNE 7 13 1024.9 - 0.0 - - - - - - -
13/09:00am 20.7 N 6 9 1024.9 - 0.2 - - - - - - -
13/08:30am 18.2 NE 6 9 1024.9 - 0.2 - - - - - - -
13/08:00am 18.0 NNE 5 7 1024.6 - 0.2 - - - - - - -
13/07:30am 18.0 ENE 6 9 1024.3 - 0.2 - - - - - - -
13/07:00am 16.6 ESE 11 16 1024.1 - 0.2 - - - - - - -
13/06:30am 15.6 S 4 9 1023.8 - 0.2 - - - - - - -
13/06:00am 14.9 W 6 8 1023.4 - 0.2 - - - - - - -
13/05:30am 14.8 WSW 7 9 1023.1 - 0.2 - - - - - - -
13/05:00am 14.9 W 6 7 1022.8 - 0.2 - - - - - - -
13/04:30am 14.9 WSW 7 8 1022.7 - 0.2 - - - - - - -
13/04:00am 14.9 WSW 6 8 1022.5 - 0.2 - - - - - - -
13/03:30am 14.9 W 7 8 1022.4 - 0.2 - - - - - - -
13/03:00am 14.9 W 7 9 1022.7 - 0.2 Recent precip. - - - - - -
13/02:30am 15.2 WSW 6 8 1022.8 - 0.0 - - - - - - -
13/02:00am 15.4 WSW 7 8 1022.9 - 0.0 - - - - - - -
13/01:30am 15.2 W 6 9 1023.1 - 0.0 - - - - - - -
13/01:00am 14.6 WSW 6 7 1023.4 - 0.0 - - - - - - -
13/12:30am 14.4 N 5 6 1023.3 - 0.0 - - - - - - -
13/12:00am 14.6 NNW 5 6 1023.6 - 0.0 - - - - - - -
 
Date/Time
EST
Temp

°C
Wind Pressure Rain
since 9am
mm
Weather Cloud Vis
km
Sea
Height
m
Swell
Dir
 
Speed
knots
Gust
knots
hPa Trend Height
m
Period
s
Dir
12/11:30pm 15.3 N 5 6 1023.8 - 0.0 - - - - - - -
12/11:00pm 17.1 E 5 6 1023.7 - 0.0 - - - - - - -
12/10:30pm 17.3 ESE 7 9 1023.7 - 0.0 - - - - - - -
12/10:00pm 17.2 SE 7 9 1023.8 - 0.0 - - - - - - -
12/09:30pm 17.3 SE 8 10 1023.8 - 0.0 - - - - - - -
12/09:00pm 17.3 SE 7 9 1023.7 - 0.0 - - - - - - -
12/08:30pm 16.3 SSE 6 8 1023.5 - 0.0 - - - - - - -
12/08:00pm 16.3 SSE 7 9 1023.5 - 0.0 - - - - - - -
12/07:30pm 16.6 SSE 7 10 1023.2 - 0.0 - - - - - - -
12/07:00pm 16.5 SSE 8 9 1022.9 - 0.0 - - - - - - -
12/06:30pm 16.8 SSE 8 11 1022.6 - 0.0 - - - - - - -
12/06:00pm 16.9 SSE 9 11 1022.4 - 0.0 - - - - - - -
12/05:30pm 17.3 SSE 9 12 1022.1 - 0.0 - - - - - - -
12/05:00pm 17.9 S 9 12 1021.9 - 0.0 - - - - - - -
12/04:30pm 18.7 S 10 15 1021.9 - 0.0 - - - - - - -
12/04:00pm 19.2 S 11 15 1022.0 - 0.0 - - - - - - -
12/03:30pm 19.9 S 11 15 1021.9 - 0.0 - - - - - - -
12/03:00pm 20.3 S 12 16 1021.9 - 0.0 - - - - - - -
12/02:30pm 20.5 S 12 17 1022.0 - 0.0 - - - - - - -
12/02:00pm 20.6 S 14 18 1022.1 - 0.0 - - - - - - -
12/01:30pm 20.9 S 14 19 1022.3 - 0.0 - - - - - - -
12/01:00pm 21.0 S 15 20 1022.5 - 0.0 - - - - - - -
12/12:30pm 21.1 S 14 18 1022.8 - 0.0 - - - - - - -
12/12:00pm 21.0 S 14 18 1023.0 - 0.0 - - - - - - -

Other Formats:

Comma delimited format used in spreadsheet applications
http://www.bom.gov.au/fwo/IDN60701/IDN60701.94598.axf

JavaScript Object Notation format (JSON) in row-major order
http://www.bom.gov.au/fwo/IDN60701/IDN60701.94598.json